Time;durP1;ratioP1;P1;durP2;ratioP2;P2;SDS_P1;SDS_P2;PMS_P1;PMS_P2;Temp;Humidity;BMP_temperature;BMP_pressure;BME280_temperature;BME280_humidity;BME280_pressure;Samples;Min_cycle;Max_cycle;Signal;HPM_P1;HPM_P2
2024/02/28 00:00:38;;;;;;;36.42;17.65;;;6.60;96.00;;;;;;4993580;28;20385;-90
2024/02/28 00:03:04;;;;;;;33.90;17.08;;;6.60;96.40;;;;;;4965026;28;20474;-89
2024/02/28 00:05:30;;;;;;;37.00;16.75;;;6.60;96.10;;;;;;4971459;28;20109;-90
2024/02/28 00:07:56;;;;;;;31.67;16.35;;;6.60;95.70;;;;;;5037509;28;20122;-89
2024/02/28 00:10:22;;;;;;;35.67;16.27;;;6.60;95.80;;;;;;5035757;28;20056;-91
2024/02/28 00:12:47;;;;;;;32.85;15.50;;;6.50;95.80;;;;;;5078049;28;20024;-91
2024/02/28 00:15:13;;;;;;;30.98;15.75;;;6.50;95.70;;;;;;5018369;28;20027;-89
2024/02/28 00:17:40;;;;;;;34.47;16.40;;;6.60;95.30;;;;;;4969590;28;20024;-90
2024/02/28 00:20:07;;;;;;;32.10;15.00;;;6.50;95.40;;;;;;4989776;28;20572;-88
2024/02/28 00:22:33;;;;;;;31.55;15.15;;;6.50;95.30;;;;;;5002966;28;20023;-89
2024/02/28 00:25:00;;;;;;;34.40;16.83;;;6.50;95.20;;;;;;4976251;28;20284;-90
2024/02/28 00:27:26;;;;;;;30.70;14.50;;;6.50;95.30;;;;;;5006190;28;20032;-89
2024/02/28 00:29:52;;;;;;;31.92;14.95;;;6.50;95.20;;;;;;5030844;28;20027;-90
2024/02/28 00:32:17;;;;;;;33.15;16.98;;;6.50;95.30;;;;;;4998043;28;20113;-88
2024/02/28 00:34:44;;;;;;;34.63;15.65;;;6.50;95.10;;;;;;5077496;28;20065;-89
2024/02/28 00:37:09;;;;;;;34.20;15.95;;;6.50;95.00;;;;;;5025007;28;20055;-90
2024/02/28 00:39:35;;;;;;;35.03;15.60;;;6.50;94.50;;;;;;5030147;28;20039;-90
2024/02/28 00:42:01;;;;;;;33.72;15.38;;;6.50;94.90;;;;;;5017471;28;20025;-90
2024/02/28 00:44:26;;;;;;;32.30;16.35;;;6.40;94.70;;;;;;5001469;28;20023;-89
2024/02/28 00:46:52;;;;;;;34.13;15.93;;;6.40;94.80;;;;;;4978932;28;20034;-90
2024/02/28 00:49:17;;;;;;;35.63;15.13;;;6.40;94.60;;;;;;5026101;28;20398;-87
2024/02/28 00:51:43;;;;;;;36.17;16.48;;;6.40;94.30;;;;;;5077558;28;20059;-91
2024/02/28 00:54:09;;;;;;;36.17;16.85;;;6.40;94.20;;;;;;5020048;28;20540;-90
2024/02/28 00:56:34;;;;;;;34.00;15.70;;;6.30;94.30;;;;;;5009057;28;20039;-90
2024/02/28 00:59:00;;;;;;;34.60;16.48;;;6.30;94.50;;;;;;5059983;28;20028;-89
2024/02/28 01:01:25;;;;;;;31.35;15.38;;;6.30;94.60;;;;;;4976367;28;20094;-89
2024/02/28 01:03:51;;;;;;;34.80;17.38;;;6.30;94.80;;;;;;4972734;28;20180;-90
2024/02/28 01:06:17;;;;;;;36.13;16.63;;;6.30;94.60;;;;;;4968078;28;20061;-90
2024/02/28 01:08:43;;;;;;;30.23;16.05;;;6.30;94.60;;;;;;5063137;28;20445;-88
2024/02/28 01:11:08;;;;;;;35.33;16.20;;;6.30;94.60;;;;;;5021397;28;20503;-88
2024/02/28 01:13:34;;;;;;;34.90;18.20;;;6.20;94.50;;;;;;5072293;28;20077;-90
2024/02/28 01:15:59;;;;;;;30.30;15.15;;;6.20;95.60;;;;;;4993217;28;20570;-89
2024/02/28 01:18:26;;;;;;;30.67;14.60;;;6.20;95.00;;;;;;5034022;28;20024;-91
2024/02/28 01:20:53;;;;;;;28.08;15.95;;;6.30;95.20;;;;;;5032369;28;20121;-88
2024/02/28 01:23:19;;;;;;;28.98;14.98;;;6.30;95.30;;;;;;4963757;28;20556;-91
2024/02/28 01:25:45;;;;;;;32.08;15.45;;;6.30;95.40;;;;;;4956142;28;20106;-90
2024/02/28 01:28:11;;;;;;;33.25;17.05;;;6.20;95.40;;;;;;4987700;28;20048;-89
2024/02/28 01:30:36;;;;;;;28.23;14.30;;;6.20;95.60;;;;;;4996011;28;20034;-89
2024/02/28 01:33:02;;;;;;;33.08;15.70;;;6.20;95.60;;;;;;5017925;28;20487;-89
2024/02/28 01:35:28;;;;;;;28.13;13.77;;;6.20;95.70;;;;;;5031574;28;20028;-90
2024/02/28 01:37:53;;;;;;;30.00;16.38;;;6.10;95.70;;;;;;5038429;28;20030;-89
2024/02/28 01:40:19;;;;;;;28.13;14.43;;;6.10;95.60;;;;;;5038653;28;20055;-90
2024/02/28 01:42:44;;;;;;;30.02;14.60;;;6.10;96.00;;;;;;5038299;28;20020;-89
2024/02/28 01:45:14;;;;;;;29.52;14.32;;;6.10;95.90;;;;;;5022154;28;20026;-90
2024/02/28 01:47:43;;;;;;;31.38;15.32;;;6.00;96.50;;;;;;5015948;28;20046;-89
2024/02/28 01:50:10;;;;;;;28.85;15.70;;;5.90;96.90;;;;;;5034127;28;20076;-90
2024/02/28 01:52:38;;;;;;;28.55;14.32;;;5.90;97.00;;;;;;4999075;28;20091;-90
2024/02/28 01:55:05;;;;;;;32.75;17.35;;;5.80;97.30;;;;;;5071190;28;20027;-90
2024/02/28 01:57:32;;;;;;;32.10;14.85;;;5.80;97.40;;;;;;5011307;28;20030;-90
2024/02/28 01:59:58;;;;;;;30.55;15.07;;;5.70;97.30;;;;;;4992556;28;20054;-90
2024/02/28 02:02:23;;;;;;;35.90;16.40;;;5.70;97.40;;;;;;4970221;28;20157;-91
2024/02/28 02:04:52;;;;;;;30.15;14.70;;;5.70;98.00;;;;;;4976999;28;20058;-89
2024/02/28 02:07:18;;;;;;;28.73;14.10;;;5.60;97.20;;;;;;5037743;28;20040;-90
2024/02/28 02:09:44;;;;;;;32.75;15.77;;;5.60;97.50;;;;;;4996578;28;20113;-89
2024/02/28 02:12:11;;;;;;;31.00;15.90;;;5.60;97.50;;;;;;5045511;28;20060;-89
2024/02/28 02:14:37;;;;;;;33.40;15.98;;;5.60;97.70;;;;;;5071641;28;20057;-94
2024/02/28 02:17:02;;;;;;;37.30;18.55;;;5.50;98.00;;;;;;5003850;28;20023;-92
2024/02/28 02:19:28;;;;;;;32.70;16.38;;;5.50;98.20;;;;;;4989320;28;20015;-90
2024/02/28 02:21:56;;;;;;;43.40;17.67;;;5.60;98.60;;;;;;5001061;28;20053;-92
2024/02/28 02:24:22;;;;;;;45.25;18.48;;;5.50;98.90;;;;;;5113024;28;20040;-88
2024/02/28 02:26:47;;;;;;;46.63;20.48;;;5.60;99.30;;;;;;5069383;28;20044;-87
2024/02/28 02:29:13;;;;;;;38.47;18.08;;;5.60;99.50;;;;;;5039693;28;20066;-89
2024/02/28 02:31:40;;;;;;;38.92;17.08;;;5.60;99.30;;;;;;5001765;28;20019;-89
2024/02/28 02:34:06;;;;;;;36.75;17.60;;;5.50;99.90;;;;;;4980457;28;20065;-89
2024/02/28 02:36:31;;;;;;;35.10;18.27;;;5.40;99.90;;;;;;4983579;28;20431;-90
2024/02/28 02:38:58;;;;;;;50.25;20.88;;;5.40;99.90;;;;;;4985255;28;20088;-90
2024/02/28 02:41:24;;;;;;;49.78;20.83;;;5.30;99.90;;;;;;5054973;28;20086;-89
2024/02/28 02:43:49;;;;;;;51.60;20.90;;;5.30;99.90;;;;;;5014521;28;20049;-90
2024/02/28 02:46:15;;;;;;;60.33;25.77;;;5.30;99.90;;;;;;5051776;28;20042;-91
2024/02/28 02:48:40;;;;;;;54.10;23.38;;;5.30;99.90;;;;;;4978558;28;20051;-89
2024/02/28 02:51:06;;;;;;;58.55;23.20;;;5.40;99.90;;;;;;4969726;28;21358;-89
2024/02/28 02:53:32;;;;;;;56.85;24.63;;;5.40;99.90;;;;;;5051481;28;20375;-89
2024/02/28 02:55:57;;;;;;;59.40;24.45;;;5.40;99.90;;;;;;5028609;28;20028;-89
2024/02/28 02:58:23;;;;;;;63.55;25.65;;;5.40;99.90;;;;;;5078977;28;20103;-90
2024/02/28 03:00:49;;;;;;;58.60;23.73;;;5.40;99.90;;;;;;5079777;28;20020;-88
2024/02/28 03:03:15;;;;;;;62.90;25.55;;;5.50;99.90;;;;;;4966179;28;20071;-90
2024/02/28 03:05:40;;;;;;;61.47;24.42;;;5.50;99.90;;;;;;4974763;28;20527;-90
2024/02/28 03:08:06;;;;;;;63.05;24.30;;;5.50;99.90;;;;;;5020368;28;20020;-88
2024/02/28 03:10:32;;;;;;;61.08;23.88;;;5.60;99.90;;;;;;4963705;28;20016;-90
2024/02/28 03:12:57;;;;;;;61.55;26.17;;;5.60;99.90;;;;;;4975055;28;20027;-88
2024/02/28 03:15:23;;;;;;;63.25;24.42;;;5.60;99.90;;;;;;5011981;28;20026;-87
2024/02/28 03:17:49;;;;;;;51.60;27.85;;;5.60;99.90;;;;;;5018474;28;20436;-89
2024/02/28 03:20:14;;;;;;;49.90;22.85;;;5.60;99.90;;;;;;4960349;28;20504;-90
2024/02/28 03:22:40;;;;;;;51.38;22.42;;;5.60;99.90;;;;;;5019624;28;20038;-89
2024/02/28 03:25:06;;;;;;;47.05;20.80;;;5.60;99.90;;;;;;4968052;28;20031;-91
2024/02/28 03:27:32;;;;;;;51.03;21.92;;;5.60;99.90;;;;;;4976968;28;20023;-90
2024/02/28 03:29:58;;;;;;;54.17;22.40;;;5.60;99.90;;;;;;4978433;28;20033;-89
2024/02/28 03:32:23;;;;;;;57.47;24.30;;;5.60;99.90;;;;;;5086364;28;20063;-88
2024/02/28 03:34:49;;;;;;;56.70;23.50;;;5.60;99.90;;;;;;5033253;28;20090;-90
2024/02/28 03:37:15;;;;;;;61.20;23.52;;;5.60;99.90;;;;;;4975848;28;20038;-90
2024/02/28 03:39:40;;;;;;;55.25;21.73;;;5.60;99.90;;;;;;5013286;28;20118;-89
2024/02/28 03:42:06;;;;;;;55.83;23.05;;;5.60;99.90;;;;;;4972960;28;20091;-88
2024/02/28 03:44:32;;;;;;;52.88;24.08;;;5.60;99.90;;;;;;4962871;28;20045;-91
2024/02/28 03:46:58;;;;;;;59.92;25.35;;;5.60;99.90;;;;;;4957471;28;20047;-88
2024/02/28 03:49:24;;;;;;;57.83;23.58;;;5.50;99.90;;;;;;4957282;29;20027;-89
2024/02/28 03:51:50;;;;;;;54.00;23.30;;;5.50;99.90;;;;;;4980755;28;20019;-89
2024/02/28 03:54:16;;;;;;;51.85;21.90;;;5.40;99.90;;;;;;4976650;28;20060;-91
2024/02/28 03:56:41;;;;;;;53.78;23.98;;;5.40;99.90;;;;;;5040841;28;20036;-89
2024/02/28 03:59:07;;;;;;;60.08;24.60;;;5.30;99.90;;;;;;4993941;28;20029;-89
2024/02/28 04:01:32;;;;;;;56.00;23.73;;;5.30;99.90;;;;;;5004765;28;20457;-89
2024/02/28 04:03:58;;;;;;;55.50;24.45;;;5.30;99.90;;;;;;5083748;28;20022;-90
2024/02/28 04:06:24;;;;;;;56.72;23.45;;;5.30;99.90;;;;;;5058824;28;20089;-89
2024/02/28 04:08:50;;;;;;;54.47;22.80;;;5.40;99.90;;;;;;5056453;28;20036;-91
2024/02/28 04:11:15;;;;;;;60.80;25.52;;;5.40;99.90;;;;;;5038527;28;20553;-89
2024/02/28 04:13:41;;;;;;;50.70;23.00;;;5.40;99.90;;;;;;5040098;28;20035;-89
2024/02/28 04:16:08;;;;;;;60.92;23.88;;;5.20;99.90;;;;;;5017014;28;20031;-89
2024/02/28 04:18:34;;;;;;;56.42;22.42;;;5.20;99.90;;;;;;5067187;28;20029;-90
2024/02/28 04:20:59;;;;;;;55.08;22.83;;;5.10;99.90;;;;;;5017631;28;20115;-90
2024/02/28 04:23:25;;;;;;;55.55;25.02;;;5.10;99.90;;;;;;5007637;28;20092;-90
2024/02/28 04:25:51;;;;;;;57.55;23.70;;;5.10;99.90;;;;;;5051119;28;20053;-91
2024/02/28 04:28:16;;;;;;;58.20;23.75;;;5.10;99.90;;;;;;4971400;28;20031;-90
2024/02/28 04:30:42;;;;;;;50.72;21.95;;;5.00;99.90;;;;;;4971991;28;20031;-88
2024/02/28 04:33:08;;;;;;;54.25;23.83;;;5.10;99.90;;;;;;5018021;28;20023;-89
2024/02/28 04:35:34;;;;;;;60.83;26.10;;;5.10;99.90;;;;;;5035518;28;20045;-91
2024/02/28 04:37:59;;;;;;;56.50;24.85;;;5.10;99.90;;;;;;5075513;28;20036;-89
2024/02/28 04:40:25;;;;;;;59.22;24.98;;;5.20;99.90;;;;;;5049997;28;20683;-89
2024/02/28 04:42:51;;;;;;;62.58;24.17;;;5.20;99.90;;;;;;4978109;28;20114;-89
2024/02/28 04:45:16;;;;;;;66.68;26.83;;;5.20;99.90;;;;;;5035694;28;20029;-90
2024/02/28 04:47:42;;;;;;;63.35;24.67;;;5.20;99.90;;;;;;4988395;28;20037;-90
2024/02/28 04:50:09;;;;;;;56.55;23.17;;;5.10;99.90;;;;;;4976477;28;20019;-89
2024/02/28 04:52:35;;;;;;;68.72;25.90;;;5.20;99.90;;;;;;5002437;28;20084;-90
2024/02/28 04:55:01;;;;;;;61.90;24.00;;;5.20;99.90;;;;;;5066301;28;20052;-88
2024/02/28 04:57:27;;;;;;;64.20;24.60;;;5.10;99.90;;;;;;5000412;28;20031;-89
2024/02/28 04:59:53;;;;;;;66.65;25.35;;;5.10;99.90;;;;;;5017687;28;20471;-90
2024/02/28 05:02:21;;;;;;;67.85;24.52;;;5.10;99.90;;;;;;4972439;28;20054;-89
2024/02/28 05:04:47;;;;;;;64.28;23.65;;;5.10;99.90;;;;;;4954075;28;20051;-90
2024/02/28 05:07:13;;;;;;;69.75;25.35;;;5.10;99.90;;;;;;4985046;28;20027;-90
2024/02/28 05:09:38;;;;;;;62.88;25.58;;;5.00;99.90;;;;;;5001069;28;20492;-89
2024/02/28 05:12:04;;;;;;;68.30;25.45;;;5.00;99.90;;;;;;4983014;28;20058;-89
2024/02/28 05:14:30;;;;;;;65.57;26.33;;;5.00;99.90;;;;;;5008603;28;20027;-90
2024/02/28 05:16:55;;;;;;;62.25;25.83;;;5.00;99.90;;;;;;4979238;28;20031;-90
2024/02/28 05:19:21;;;;;;;70.68;28.95;;;5.00;99.90;;;;;;4979398;28;20524;-89
2024/02/28 05:21:48;;;;;;;61.20;25.90;;;4.90;99.90;;;;;;4979318;28;20027;-88
2024/02/28 05:24:13;;;;;;;62.75;25.35;;;4.90;99.90;;;;;;5013302;28;20504;-89
2024/02/28 05:26:39;;;;;;;62.63;26.55;;;4.80;99.90;;;;;;5011981;28;20027;-90
2024/02/28 05:29:05;;;;;;;65.18;25.33;;;4.70;99.90;;;;;;5023136;28;20029;-88
2024/02/28 05:31:32;;;;;;;61.50;22.70;;;4.70;99.90;;;;;;5043941;28;20050;-89
2024/02/28 05:33:58;;;;;;;68.38;25.45;;;4.60;99.90;;;;;;4985742;28;20088;-90
2024/02/28 05:36:26;;;;;;;62.35;23.98;;;4.50;99.90;;;;;;5011203;28;20031;-88
2024/02/28 05:38:53;;;;;;;64.57;24.33;;;4.40;99.90;;;;;;5044323;28;20037;-91
2024/02/28 05:41:19;;;;;;;67.38;25.15;;;4.30;99.90;;;;;;5086375;28;20020;-89
2024/02/28 05:43:45;;;;;;;63.60;23.13;;;4.20;99.90;;;;;;4997083;28;20027;-89
2024/02/28 05:46:11;;;;;;;71.18;24.25;;;4.20;99.90;;;;;;5062539;28;20035;-89
2024/02/28 05:48:37;;;;;;;63.90;22.60;;;4.20;99.90;;;;;;5020984;28;20023;-90
2024/02/28 05:51:03;;;;;;;56.05;23.48;;;4.20;99.90;;;;;;5052363;28;20509;-89
2024/02/28 05:53:35;;;;;;;67.45;25.95;;;4.10;99.90;;;;;;4966966;28;20540;-89
2024/02/28 05:56:01;;;;;;;70.80;26.13;;;4.10;99.90;;;;;;5018534;28;20039;-90
2024/02/28 05:58:27;;;;;;;69.85;25.55;;;4.10;99.90;;;;;;5034565;28;20036;-89
2024/02/28 06:00:52;;;;;;;76.63;28.13;;;4.00;99.90;;;;;;5052732;28;20034;-88
2024/02/28 06:03:18;;;;;;;62.90;23.05;;;4.00;99.90;;;;;;5032783;28;20044;-88
2024/02/28 06:05:44;;;;;;;72.18;25.30;;;4.00;99.90;;;;;;4995609;28;20030;-91
2024/02/28 06:08:10;;;;;;;64.95;25.00;;;4.00;99.90;;;;;;5028300;28;20021;-89
2024/02/28 06:10:35;;;;;;;66.20;24.83;;;3.90;99.90;;;;;;5032372;28;20047;-88
2024/02/28 06:13:02;;;;;;;59.50;23.67;;;3.90;99.90;;;;;;5061679;28;20071;-87
2024/02/28 06:15:27;;;;;;;57.97;22.90;;;4.00;99.90;;;;;;5050825;28;20030;-90
2024/02/28 06:17:55;;;;;;;58.22;22.83;;;4.00;99.90;;;;;;5019815;28;20029;-90
2024/02/28 06:20:21;;;;;;;61.97;25.38;;;4.00;99.90;;;;;;5020824;28;20367;-89
2024/02/28 06:22:47;;;;;;;53.50;19.88;;;3.90;99.90;;;;;;5012871;28;20051;-90
2024/02/28 06:25:19;;;;;;;70.03;24.13;;;3.90;99.90;;;;;;4985059;28;20467;-89
2024/02/28 06:27:45;;;;;;;68.60;26.42;;;4.00;99.90;;;;;;5054646;28;20035;-91
2024/02/28 06:30:12;;;;;;;61.88;24.65;;;4.00;99.90;;;;;;5021232;28;20031;-89
2024/02/28 06:32:38;;;;;;;67.43;25.77;;;3.90;99.90;;;;;;4970865;28;20024;-90
2024/02/28 06:35:04;;;;;;;63.97;27.63;;;3.90;99.90;;;;;;4961746;28;20065;-90
2024/02/28 06:37:30;;;;;;;70.80;26.27;;;3.80;99.90;;;;;;4970116;28;20032;-89
2024/02/28 06:39:55;;;;;;;76.70;28.23;;;3.80;99.90;;;;;;5010506;28;20043;-90
2024/02/28 06:42:21;;;;;;;71.85;27.77;;;3.90;99.90;;;;;;4970373;28;20035;-91
2024/02/28 06:44:47;;;;;;;71.20;27.58;;;3.80;99.90;;;;;;5058593;28;20056;-89
2024/02/28 06:47:14;;;;;;;70.43;25.23;;;3.90;99.90;;;;;;4980683;28;20028;-90
2024/02/28 06:49:39;;;;;;;69.00;26.75;;;3.80;99.90;;;;;;5079844;28;20025;-91
2024/02/28 06:52:05;;;;;;;65.88;28.23;;;3.80;99.90;;;;;;5034545;28;20118;-90
2024/02/28 06:54:31;;;;;;;70.40;26.48;;;3.80;99.90;;;;;;5059490;28;20033;-90
2024/02/28 06:56:57;;;;;;;70.85;26.63;;;3.80;99.90;;;;;;5001213;28;20027;-90
2024/02/28 06:59:23;;;;;;;65.03;26.40;;;3.90;99.90;;;;;;4969418;28;20034;-92
2024/02/28 07:01:49;;;;;;;69.80;26.45;;;3.80;99.90;;;;;;5018707;28;20024;-90
2024/02/28 07:04:14;;;;;;;66.07;24.77;;;3.70;99.90;;;;;;4968238;28;20023;-89
2024/02/28 07:06:40;;;;;;;60.35;22.85;;;3.70;99.90;;;;;;5006160;28;20067;-90
2024/02/28 07:09:09;;;;;;;56.03;24.17;;;3.70;99.90;;;;;;5022840;28;20077;-90
2024/02/28 07:11:34;;;;;;;69.22;26.25;;;3.60;99.90;;;;;;5090706;28;20044;-90
2024/02/28 07:14:02;;;;;;;78.63;28.17;;;3.60;99.90;;;;;;5070205;28;20020;-90
2024/02/28 07:16:29;;;;;;;73.30;27.92;;;3.70;99.90;;;;;;5038950;28;20024;-89
2024/02/28 07:18:54;;;;;;;65.28;24.25;;;3.80;99.90;;;;;;5030521;28;20035;-90
2024/02/28 07:21:20;;;;;;;68.18;24.92;;;3.80;99.90;;;;;;4976827;28;20037;-91
2024/02/28 07:23:46;;;;;;;78.72;27.73;;;4.00;99.90;;;;;;5011379;28;20037;-90
2024/02/28 07:26:18;;;;;;;76.65;27.90;;;4.00;99.90;;;;;;5036330;28;20047;-89
2024/02/28 07:28:49;;;;;;;70.75;27.55;;;4.10;99.90;;;;;;5039486;28;20020;-89
2024/02/28 07:31:18;;;;;;;76.85;28.42;;;4.30;99.90;;;;;;4972382;28;20023;-90
2024/02/28 07:33:44;;;;;;;73.47;30.13;;;4.30;99.90;;;;;;4967496;28;20088;-89
2024/02/28 07:36:10;;;;;;;77.65;31.80;;;4.30;99.90;;;;;;4964335;28;20373;-89
2024/02/28 07:38:42;;;;;;;74.80;27.52;;;4.40;99.90;;;;;;4956989;28;20039;-90
2024/02/28 07:41:07;;;;;;;75.97;29.27;;;4.40;99.90;;;;;;5018829;28;20104;-89
2024/02/28 07:43:37;;;;;;;70.72;28.52;;;4.50;99.90;;;;;;5021290;28;20019;-90
2024/02/28 07:46:07;;;;;;;80.72;31.02;;;4.50;99.90;;;;;;4969132;28;20024;-89
2024/02/28 07:48:32;;;;;;;83.63;30.88;;;4.60;99.90;;;;;;4977378;28;20110;-89
2024/02/28 07:50:58;;;;;;;77.25;26.95;;;4.60;99.90;;;;;;4958014;28;20062;-89
2024/02/28 07:53:24;;;;;;;87.53;31.75;;;4.70;99.90;;;;;;4968318;28;20114;-90
2024/02/28 07:55:50;;;;;;;88.65;33.47;;;4.70;99.90;;;;;;4970603;28;20067;-89
2024/02/28 07:58:16;;;;;;;77.60;30.90;;;4.80;99.90;;;;;;4971437;28;20073;-89
2024/02/28 08:00:43;;;;;;;83.47;31.17;;;4.80;99.90;;;;;;5063269;28;20044;-89
2024/02/28 08:03:09;;;;;;;76.57;27.63;;;4.80;99.90;;;;;;5034790;28;20019;-94
2024/02/28 08:05:38;;;;;;;81.22;31.70;;;4.90;99.90;;;;;;5036252;28;20030;-95
2024/02/28 08:08:05;;;;;;;67.88;27.45;;;5.00;99.90;;;;;;4988485;28;20018;-90
2024/02/28 08:10:31;;;;;;;76.55;27.77;;;5.00;99.90;;;;;;5049143;28;20059;-87
2024/02/28 08:12:57;;;;;;;74.78;29.30;;;5.10;99.90;;;;;;5035946;28;20034;-88
2024/02/28 08:15:23;;;;;;;78.30;29.77;;;5.20;99.90;;;;;;5002748;28;20114;-89
2024/02/28 08:17:49;;;;;;;78.97;26.80;;;5.40;99.90;;;;;;4975030;28;20062;-88
2024/02/28 08:20:15;;;;;;;79.18;29.60;;;5.40;99.90;;;;;;5028806;28;20025;-88
2024/02/28 08:22:41;;;;;;;68.68;27.65;;;5.50;98.30;;;;;;4991339;28;20026;-91
2024/02/28 08:25:07;;;;;;;138.13;35.22;;;5.50;99.00;;;;;;4969246;28;20679;-89
2024/02/28 08:27:34;;;;;;;85.90;30.60;;;5.50;99.30;;;;;;4990334;28;20014;-89
2024/02/28 08:30:00;;;;;;;83.28;26.50;;;5.60;98.60;;;;;;4962912;28;20014;-90
2024/02/28 08:32:26;;;;;;;76.63;27.73;;;5.60;97.70;;;;;;4984810;28;20073;-88
2024/02/28 08:34:54;;;;;;;69.75;25.02;;;5.60;97.90;;;;;;4968585;28;20035;-89
2024/02/28 08:37:19;;;;;;;72.18;26.50;;;5.70;97.10;;;;;;4990992;28;20043;-89
2024/02/28 08:39:45;;;;;;;62.03;25.98;;;5.60;96.40;;;;;;5006271;28;20043;-90
2024/02/28 08:42:12;;;;;;;63.72;24.88;;;5.70;97.20;;;;;;4975564;28;20031;-89
2024/02/28 08:44:37;;;;;;;66.65;26.92;;;5.80;96.30;;;;;;4988227;28;20027;-89
2024/02/28 08:47:03;;;;;;;68.93;25.60;;;5.80;96.10;;;;;;4988358;28;20485;-89
2024/02/28 08:49:30;;;;;;;66.68;25.60;;;6.00;95.80;;;;;;4979665;28;20031;-86
2024/02/28 08:51:57;;;;;;;69.35;25.42;;;5.90;94.70;;;;;;4988182;28;20036;-90
2024/02/28 08:54:22;;;;;;;72.72;26.63;;;6.00;95.70;;;;;;5074089;28;20049;-85
2024/02/28 08:56:48;;;;;;;64.15;25.67;;;6.00;95.00;;;;;;4975914;28;20027;-88
2024/02/28 08:59:14;;;;;;;68.80;25.25;;;5.90;93.70;;;;;;4975529;28;20485;-88
2024/02/28 09:01:41;;;;;;;61.70;25.02;;;6.00;94.80;;;;;;4971484;28;20490;-86
2024/02/28 09:04:07;;;;;;;60.00;24.42;;;6.10;94.30;;;;;;4972914;28;20037;-88
2024/02/28 09:06:32;;;;;;;58.95;23.73;;;6.30;93.20;;;;;;5003524;28;20050;-89
2024/02/28 09:08:58;;;;;;;63.42;24.83;;;6.40;93.10;;;;;;5000744;28;20026;-86
2024/02/28 09:11:25;;;;;;;66.10;26.27;;;6.40;91.90;;;;;;4991437;28;20027;-86
2024/02/28 09:13:59;;;;;;;61.30;25.17;;;6.40;92.70;;;;;;5006935;28;20015;-91
2024/02/28 09:16:30;;;;;;;65.28;23.92;;;6.40;92.60;;;;;;5013527;28;20069;-89
2024/02/28 09:18:56;;;;;;;62.10;23.35;;;6.50;92.50;;;;;;4964492;29;20031;-88
2024/02/28 09:21:51;;;;;;;58.63;24.90;;;6.50;92.30;;;;;;5017268;28;20042;-88
2024/02/28 09:24:47;;;;;;;58.30;23.80;;;6.40;92.10;;;;;;4977328;28;20042;-87
2024/02/28 09:27:46;;;;;;;87.82;24.42;;;6.50;92.50;;;;;;4970268;28;20131;-89
2024/02/28 09:30:11;;;;;;;72.65;23.90;;;6.60;92.30;;;;;;4957753;28;20541;-87
2024/02/28 09:32:37;;;;;;;62.13;23.85;;;6.60;91.70;;;;;;4984502;28;20102;-87
2024/02/28 09:35:04;;;;;;;55.22;20.88;;;6.70;91.40;;;;;;5008978;28;20114;-90
2024/02/28 09:37:31;;;;;;;59.42;22.58;;;6.70;91.00;;;;;;4976047;28;20497;-88
2024/02/28 09:39:57;;;;;;;54.97;20.75;;;6.90;90.50;;;;;;5002469;28;20035;-86
2024/02/28 09:42:23;;;;;;;52.58;21.80;;;6.90;90.60;;;;;;4978372;28;20114;-87
2024/02/28 09:44:49;;;;;;;48.33;23.55;;;7.10;89.30;;;;;;4994589;28;20335;-88
2024/02/28 09:47:15;;;;;;;50.50;23.65;;;7.30;87.80;;;;;;4977335;28;20049;-87
2024/02/28 09:49:43;;;;;;;54.55;23.98;;;7.40;88.80;;;;;;4992235;28;20560;-84
2024/02/28 09:52:09;;;;;;;52.88;21.75;;;7.50;88.30;;;;;;4974045;28;20023;-88
2024/02/28 09:54:34;;;;;;;53.60;21.92;;;7.60;86.70;;;;;;4978932;28;20118;-87
2024/02/28 09:57:00;;;;;;;44.80;22.02;;;7.80;87.20;;;;;;4971128;28;20023;-87
2024/02/28 09:59:27;;;;;;;51.40;19.25;;;7.90;86.10;;;;;;4970664;28;20045;-85
2024/02/28 10:01:57;;;;;;;45.67;19.95;;;8.00;84.50;;;;;;4977806;28;20030;-88
2024/02/28 10:04:30;;;;;;;48.25;22.45;;;7.90;85.40;;;;;;4984430;28;20022;-84
2024/02/28 10:06:56;;;;;;;52.72;20.08;;;8.10;85.10;;;;;;4980409;28;20632;-84
2024/02/28 10:09:22;;;;;;;46.35;18.92;;;8.40;83.20;;;;;;4978018;28;20034;-88
2024/02/28 10:11:48;;;;;;;43.30;18.95;;;8.30;82.80;;;;;;4977061;28;20046;-88
2024/02/28 10:14:20;;;;;;;44.47;19.52;;;8.40;83.20;;;;;;4976715;28;20034;-88
2024/02/28 10:16:46;;;;;;;48.45;20.30;;;8.60;81.20;;;;;;4974253;28;20023;-88
2024/02/28 10:19:12;;;;;;;46.05;21.63;;;8.60;82.40;;;;;;4973385;28;20394;-87
2024/02/28 10:21:38;;;;;;;47.30;20.90;;;8.80;82.20;;;;;;4970174;28;20069;-88
2024/02/28 10:24:05;;;;;;;45.90;21.27;;;8.80;81.80;;;;;;4974916;28;20015;-87
2024/02/28 10:26:34;;;;;;;46.58;20.25;;;8.80;80.90;;;;;;4974345;28;20532;-88
2024/02/28 10:29:00;;;;;;;51.63;20.85;;;8.80;81.30;;;;;;4975904;28;20019;-89
2024/02/28 10:31:26;;;;;;;48.38;21.23;;;8.80;81.70;;;;;;4974353;28;20097;-88
2024/02/28 10:37:36;;;;;;;;;;;;;;;;;;;;;
2024/02/28 10:43:34;;;;;;;46.95;20.52;;;9.80;76.60;;;;;;5060570;28;20049;-89
2024/02/28 10:46:51;;;;;;;;;;;;;;;;;;;;;
2024/02/28 10:49:46;;;;;;;39.78;19.25;;;10.30;73.60;;;;;;5051888;22;20139;-89
2024/02/28 10:52:50;;;;;;;;;;;;;;;;;;;;;
2024/02/28 10:59:39;;;;;;;;;;;;;;;;;;;;;
2024/02/28 11:02:27;;;;;;;48.63;18.75;;;10.50;71.10;;;;;;5040126;28;20093;-89
2024/02/28 11:08:35;;;;;;;44.00;16.45;;;10.70;70.10;;;;;;5061506;22;20074;-92
2024/02/28 11:11:04;;;;;;;42.22;19.00;;;10.90;67.70;;;;;;4976296;28;20033;-92
2024/02/28 11:13:33;;;;;;;40.28;18.67;;;10.80;69.00;;;;;;4979709;28;20034;-93
2024/02/28 11:16:09;;;;;;;40.58;19.08;;;10.90;68.30;;;;;;5002026;28;20092;-93
2024/02/28 11:18:51;;;;;;;36.28;17.13;;;11.10;68.00;;;;;;4976805;28;20030;-92
2024/02/28 11:21:17;;;;;;;42.13;17.30;;;11.50;65.60;;;;;;4974487;28;20035;-93
2024/02/28 11:23:49;;;;;;;37.47;17.77;;;11.70;64.20;;;;;;4980147;28;20370;-92
2024/02/28 11:26:15;;;;;;;36.25;15.93;;;11.40;64.50;;;;;;4995392;28;20391;-93
2024/02/28 11:28:50;;;;;;;40.08;18.55;;;11.40;64.20;;;;;;4990930;28;20023;-92
2024/02/28 11:31:19;;;;;;;37.50;17.67;;;11.20;64.90;;;;;;4989706;28;20027;-94
2024/02/28 11:33:45;;;;;;;35.95;17.45;;;11.30;65.10;;;;;;4987774;28;20023;-92
2024/02/28 11:36:20;;;;;;;45.00;21.40;;;11.10;65.60;;;;;;4984750;28;20032;-93
2024/02/28 11:38:46;;;;;;;36.63;19.30;;;11.20;64.60;;;;;;4975031;28;20102;-93
2024/02/28 11:41:12;;;;;;;36.63;16.75;;;11.10;65.10;;;;;;4980670;28;20070;-92
2024/02/28 11:43:41;;;;;;;46.75;18.02;;;11.00;65.80;;;;;;4985237;28;20014;-93
2024/02/28 11:46:17;;;;;;;33.75;17.73;;;11.30;64.40;;;;;;4975461;28;20029;-93
2024/02/28 11:48:46;;;;;;;34.53;16.70;;;11.90;63.30;;;;;;4977022;28;20030;-93
2024/02/28 11:51:12;;;;;;;40.67;20.80;;;12.20;58.90;;;;;;4987822;28;20027;-93
2024/02/28 11:53:41;;;;;;;35.33;17.08;;;11.90;59.90;;;;;;4985977;28;20515;-94
2024/02/28 11:56:08;;;;;;;35.42;15.68;;;12.30;58.30;;;;;;4976585;28;20029;-93
2024/02/28 11:58:37;;;;;;;36.50;15.20;;;12.30;57.10;;;;;;4974924;28;20034;-94
2024/02/28 12:01:06;;;;;;;33.92;15.80;;;12.30;57.20;;;;;;4987570;28;20088;-94
2024/02/28 12:03:45;;;;;;;34.20;14.98;;;12.30;57.10;;;;;;4978960;28;20026;-93
2024/02/28 12:06:17;;;;;;;32.47;15.23;;;12.20;57.90;;;;;;4976304;28;20022;-93
2024/02/28 12:08:55;;;;;;;34.72;15.48;;;11.90;59.60;;;;;;4983697;28;20493;-93
2024/02/28 12:14:01;;;;;;;28.55;13.80;;;12.40;55.50;;;;;;5015282;26;20032;-94
2024/02/28 12:17:04;;;;;;;;;;;;;;;;;;;;;
2024/02/28 12:23:15;;;;;;;27.65;14.05;;;12.90;55.40;;;;;;5105770;28;20046;-90
2024/02/28 12:26:11;;;;;;;;;;;;;;;;;;;;;
2024/02/28 12:28:37;;;;;;;26.45;12.75;;;13.40;50.70;;;;;;5092727;28;20097;-93
2024/02/28 12:31:09;;;;;;;27.52;13.35;;;13.40;49.90;;;;;;5116302;28;20032;-94
2024/02/28 12:33:38;;;;;;;30.55;14.23;;;13.90;48.50;;;;;;5113212;28;20031;-89
2024/02/28 12:36:13;;;;;;;27.40;12.98;;;14.30;48.20;;;;;;5081058;28;20020;-90
2024/02/28 12:38:59;;;;;;;25.70;13.43;;;14.80;46.20;;;;;;5089314;28;20021;-91
2024/02/28 12:41:28;;;;;;;30.00;15.02;;;14.90;46.60;;;;;;5085340;28;20029;-91
2024/02/28 12:43:54;;;;;;;22.52;12.93;;;15.00;45.20;;;;;;5070425;28;20024;-92
2024/02/28 12:46:19;;;;;;;28.30;13.40;;;15.20;45.40;;;;;;5089353;28;20032;-91
2024/02/28 12:48:47;;;;;;;22.83;12.70;;;14.60;45.70;;;;;;5094089;28;20016;-91
2024/02/28 12:51:40;;;;;;;32.35;14.98;;;14.40;46.30;;;;;;5090456;28;20159;-91
2024/02/28 12:54:09;;;;;;;25.33;13.77;;;14.40;46.10;;;;;;5088144;28;20020;-91
2024/02/28 12:56:36;;;;;;;25.10;13.35;;;14.80;45.40;;;;;;5097433;28;20588;-90
2024/02/28 12:59:02;;;;;;;29.95;14.05;;;14.90;45.80;;;;;;5078904;28;20024;-90
2024/02/28 13:01:28;;;;;;;26.40;14.43;;;15.40;44.80;;;;;;5078313;28;20039;-91
2024/02/28 13:03:54;;;;;;;26.80;14.38;;;15.70;44.10;;;;;;5096354;28;20024;-91
2024/02/28 13:06:20;;;;;;;25.25;13.10;;;15.70;43.70;;;;;;5099160;28;20054;-91